Time;durP1;ratioP1;P1;durP2;ratioP2;P2;SDS_P1;SDS_P2;PMS_P1;PMS_P2;Temp;Humidity;BMP_temperature;BMP_pressure;BME280_temperature;BME280_humidity;BME280_pressure;Samples;Min_cycle;Max_cycle;Signal;HPM_P1;HPM_P2
2023/10/09 00:01:14;;;;;;;11.15;6.20;;;;;;;6.23;99.04;101513.65;5043119;56;1136596;-72
2023/10/09 00:06:36;;;;;;;12.77;5.80;;;;;;;6.29;99.64;101514.67;5063831;56;1136581;-72
2023/10/09 00:11:29;;;;;;;8.23;4.63;;;;;;;6.24;99.37;101496.97;5041340;56;1138652;-72
2023/10/09 00:16:37;;;;;;;11.40;4.23;;;;;;;6.16;100.00;101471.48;5004500;57;1134639;-72
2023/10/09 00:21:45;;;;;;;13.73;5.80;;;;;;;6.14;100.00;101474.63;5058930;57;1138851;-72
2023/10/09 00:26:55;;;;;;;7.87;4.20;;;;;;;6.10;100.00;101477.48;5032841;57;1138805;-72
2023/10/09 00:32:13;;;;;;;9.97;3.83;;;;;;;5.94;100.00;101479.92;5033642;57;1136974;-72
2023/10/09 00:37:16;;;;;;;8.83;3.52;;;;;;;5.78;100.00;101474.44;5054220;57;1136862;-73
2023/10/09 00:42:39;;;;;;;8.03;4.15;;;;;;;5.67;100.00;101463.52;5033727;57;1136618;-72
2023/10/09 00:47:34;;;;;;;7.85;5.05;;;;;;;5.81;100.00;101451.97;5030786;57;1139201;-72
2023/10/09 00:52:50;;;;;;;20.33;7.73;;;;;;;5.99;100.00;101452.52;5033712;56;1138800;-72
2023/10/09 00:57:57;;;;;;;10.00;6.27;;;;;;;6.13;100.00;101444.03;5051342;57;1139004;-73
2023/10/09 01:08:43;;;;;;;4.90;3.23;;;;;;;6.29;100.00;101454.70;5034339;57;1138814;-72
2023/10/09 01:14:28;;;;;;;4.27;3.03;;;;;;;6.06;100.00;101439.14;5031943;57;1136896;-72
2023/10/09 01:18:49;;;;;;;9.60;4.10;;;;;;;5.88;100.00;101435.51;5033197;56;1136994;-73
2023/10/09 01:24:08;;;;;;;7.03;3.60;;;;;;;5.83;100.00;101428.28;5044424;55;1136787;-72
2023/10/09 01:29:21;;;;;;;5.77;3.27;;;;;;;5.76;100.00;101438.20;5053850;56;1137147;-72
2023/10/09 01:34:41;;;;;;;6.17;2.80;;;;;;;5.69;100.00;101439.38;5053027;56;1139196;-73
2023/10/09 01:39:48;;;;;;;8.23;3.00;;;;;;;5.68;100.00;101442.06;5071786;57;1138816;-72
2023/10/09 01:44:53;;;;;;;5.20;3.10;;;;;;;5.67;100.00;101439.89;5052165;57;1138646;-72
2023/10/09 01:50:04;;;;;;;10.20;4.00;;;;;;;5.75;100.00;101426.46;5044809;57;1136663;-72
2023/10/09 01:55:13;;;;;;;11.20;5.57;;;;;;;5.90;100.00;101412.24;5060397;57;1138848;-72
2023/10/09 02:00:22;;;;;;;8.00;4.23;;;;;;;5.94;100.00;101413.82;5040490;57;1139099;-72
2023/10/09 02:31:40;;;;;;;15.00;5.86;;;;;;;5.93;100.00;101370.11;5003049;57;1140769;-73
2023/10/09 02:36:48;;;;;;;12.80;6.37;;;;;;;6.05;100.00;101359.97;4969433;58;1140902;-72
2023/10/09 02:42:43;;;;;;;9.60;6.03;;;;;;;6.11;100.00;101346.07;4954941;57;1139007;-72
2023/10/09 02:47:17;;;;;;;7.70;3.23;;;;;;;6.10;100.00;101336.98;5010289;57;1136710;-72
2023/10/09 02:52:18;;;;;;;4.00;3.10;;;;;;;6.04;100.00;101319.72;5049334;57;1136639;-71
2023/10/09 02:57:23;;;;;;;5.58;3.37;;;;;;;6.01;100.00;101306.73;5099968;56;1139074;-72
2023/10/09 03:02:31;;;;;;;6.47;3.55;;;;;;;5.98;100.00;101291.96;5105708;56;1138782;-71
2023/10/09 03:07:36;;;;;;;8.57;3.33;;;;;;;5.96;100.00;101270.63;5105957;56;1136616;-72
2023/10/09 03:12:43;;;;;;;7.37;3.37;;;;;;;5.91;100.00;101277.89;5125269;56;1137094;-73
2023/10/09 03:17:49;;;;;;;5.17;3.20;;;;;;;5.80;100.00;101263.07;5105846;56;1136562;-72
2023/10/09 03:22:55;;;;;;;5.43;3.20;;;;;;;5.73;100.00;101257.70;5105890;56;1136773;-72
2023/10/09 03:28:02;;;;;;;6.50;2.97;;;;;;;5.70;100.00;101248.19;5121626;56;1136851;-71
2023/10/09 03:33:07;;;;;;;22.37;9.20;;;;;;;5.72;100.00;101237.63;5104897;56;1138845;-73
2023/10/09 03:38:16;;;;;;;13.90;6.40;;;;;;;5.77;100.00;101215.50;5112126;56;1140954;-71
2023/10/09 03:43:21;;;;;;;6.17;2.90;;;;;;;5.82;100.00;101206.92;5062542;57;1140924;-72
2023/10/09 03:48:31;;;;;;;5.30;2.67;;;;;;;5.85;100.00;101198.91;5044147;57;1136815;-72
2023/10/09 03:53:36;;;;;;;5.23;3.17;;;;;;;5.87;100.00;101188.34;5044814;57;1136837;-72
2023/10/09 03:58:43;;;;;;;11.17;5.37;;;;;;;5.93;100.00;101181.53;4970427;57;1136857;-72
2023/10/09 04:04:01;;;;;;;7.70;3.43;;;;;;;5.98;100.00;101173.81;4950754;57;1139072;-72
2023/10/09 04:14:26;;;;;;;7.67;4.35;;;;;;;6.07;100.00;101154.61;5064211;57;1148255;-72
2023/10/09 04:19:39;;;;;;;10.77;5.50;;;;;;;6.14;100.00;101148.97;5044350;57;1139152;-73
2023/10/09 04:24:41;;;;;;;17.10;7.77;;;;;;;6.14;100.00;101140.23;5044357;57;1138758;-73
2023/10/09 04:29:49;;;;;;;14.37;7.13;;;;;;;6.13;100.00;101134.59;5032472;57;1138826;-73
2023/10/09 04:35:19;;;;;;;11.10;4.97;;;;;;;6.11;100.00;101131.22;4949692;57;1138979;-72
2023/10/09 04:56:15;;;;;;;10.50;5.70;;;;;;;6.17;100.00;101105.48;4867941;57;1138858;-72
2023/10/09 05:01:35;;;;;;;18.97;11.33;;;;;;;6.20;100.00;101088.73;4921567;58;1139073;-75
2023/10/09 05:06:54;;;;;;;9.38;5.50;;;;;;;6.22;100.00;101084.26;4865901;59;1140636;-67
2023/10/09 05:11:53;;;;;;;12.13;4.60;;;;;;;6.25;100.00;101091.98;4876489;58;1136992;-68
2023/10/09 05:17:03;;;;;;;15.80;6.90;;;;;;;6.29;100.00;101107.95;4878351;59;1140877;-67
2023/10/09 05:22:16;;;;;;;41.43;16.13;;;;;;;6.35;100.00;101106.34;4865310;58;1141022;-66
2023/10/09 05:27:18;;;;;;;25.40;10.80;;;;;;;6.38;100.00;101104.88;4893368;59;1142866;-66
2023/10/09 05:32:48;;;;;;;11.23;5.30;;;;;;;6.43;100.00;101102.85;4878431;58;1141091;-67
2023/10/09 05:37:46;;;;;;;9.55;4.45;;;;;;;6.41;100.00;101106.05;4853178;58;1138982;-68
2023/10/09 05:43:03;;;;;;;7.03;4.73;;;;;;;6.38;100.00;101107.52;4949051;56;1139024;-67
2023/10/09 05:54:11;;;;;;;13.53;8.40;;;;;;;6.54;100.00;101082.15;4852755;59;1140961;-67
2023/10/09 06:03:54;;;;;;;8.60;5.03;;;;;;;6.75;100.00;101070.11;4948713;58;1141064;-67
2023/10/09 06:14:31;;;;;;;25.45;13.08;;;;;;;6.63;100.00;101096.58;4858509;58;1138769;-66
2023/10/09 06:19:42;;;;;;;25.53;12.67;;;;;;;6.61;100.00;101093.17;4967888;58;1142994;-67
2023/10/09 06:24:54;;;;;;;37.75;16.17;;;;;;;6.69;100.00;101084.44;4969809;58;1143243;-67
2023/10/09 06:29:51;;;;;;;24.40;10.67;;;;;;;6.86;100.00;101086.19;4966251;58;1143444;-66
2023/10/09 06:45:54;;;;;;;12.73;7.17;;;;;;;7.14;100.00;101092.13;4845634;58;1139035;-66
2023/10/09 06:50:58;;;;;;;19.17;9.23;;;;;;;7.18;100.00;101101.05;4966717;57;1140846;-66
2023/10/09 06:56:07;;;;;;;40.53;20.80;;;;;;;7.23;100.00;101102.98;4986920;57;1141105;-68
2023/10/09 07:16:59;;;;;;;7.67;5.90;;;;;;;7.31;100.00;101084.16;4943176;58;1141342;-67
2023/10/09 07:22:23;;;;;;;22.17;12.57;;;;;;;7.32;100.00;101080.60;4948774;58;1138869;-75
2023/10/09 07:27:15;;;;;;;7.23;5.10;;;;;;;7.44;100.00;101083.02;4967857;57;1143143;-73
2023/10/09 07:37:34;;;;;;;11.53;5.10;;;;;;;7.62;100.00;101099.10;5153024;55;47311;-72
2023/10/09 07:48:14;;;;;;;9.87;6.20;;;;;;;7.65;100.00;101087.91;5138986;56;1138935;-73
2023/10/09 07:53:25;;;;;;;18.50;5.67;;;;;;;7.70;100.00;101097.72;4965286;56;1138802;-72
2023/10/09 07:58:25;;;;;;;11.17;6.47;;;;;;;7.71;100.00;101083.63;4964312;57;1238936;-74
2023/10/09 08:03:32;;;;;;;22.67;7.08;;;;;;;7.73;100.00;101069.91;4856812;58;1141110;-65
2023/10/09 08:09:10;;;;;;;17.37;6.00;;;;;;;7.77;100.00;101067.95;4957950;57;1140997;-66
2023/10/09 08:13:56;;;;;;;10.80;6.23;;;;;;;7.88;100.00;101073.45;4980569;57;1140900;-67
2023/10/09 08:18:57;;;;;;;10.63;6.20;;;;;;;7.98;100.00;101079.02;4997585;56;1141079;-65
2023/10/09 08:24:04;;;;;;;9.17;5.77;;;;;;;8.06;100.00;101101.83;5002650;56;1140872;-67
2023/10/09 08:29:16;;;;;;;9.37;5.47;;;;;;;8.14;100.00;101090.37;5021025;56;1138676;-66
2023/10/09 08:34:25;;;;;;;13.50;5.20;;;;;;;8.24;100.00;101069.15;4932087;57;1138721;-65
2023/10/09 08:39:35;;;;;;;12.10;6.70;;;;;;;8.32;100.00;101064.76;5069028;56;1141435;-66
2023/10/09 08:44:44;;;;;;;12.57;5.83;;;;;;;8.36;100.00;101055.27;5048686;56;1140814;-66
2023/10/09 08:49:47;;;;;;;14.90;4.60;;;;;;;8.41;100.00;101061.56;5031149;56;1140983;-65
2023/10/09 08:54:53;;;;;;;6.37;3.87;;;;;;;8.52;100.00;101049.08;4966942;57;1140808;-66
2023/10/09 08:59:58;;;;;;;8.53;3.97;;;;;;;8.63;100.00;101048.80;4992353;56;1138858;-66
2023/10/09 09:05:18;;;;;;;6.53;3.37;;;;;;;8.66;100.00;101046.45;4905291;58;1139062;-67
2023/10/09 09:10:35;;;;;;;8.06;4.00;;;;;;;8.68;100.00;101046.73;5107051;56;1138993;-67
2023/10/09 09:15:40;;;;;;;6.80;4.35;;;;;;;8.80;100.00;101045.97;4989639;56;1139056;-66
2023/10/09 09:20:53;;;;;;;14.47;3.77;;;;;;;8.92;100.00;101046.14;4986018;56;1138921;-65
2023/10/09 09:26:11;;;;;;;7.57;4.40;;;;;;;9.01;100.00;101046.91;5019715;57;1141030;-66
2023/10/09 09:31:13;;;;;;;7.37;4.30;;;;;;;9.08;100.00;101041.14;5022415;56;1138854;-65
2023/10/09 09:36:19;;;;;;;5.73;3.57;;;;;;;9.14;100.00;101034.63;5046715;56;1138971;-65
2023/10/09 09:41:27;;;;;;;7.12;3.20;;;;;;;9.21;100.00;101026.69;5086876;57;1138724;-66
2023/10/09 09:46:35;;;;;;;6.83;2.97;;;;;;;9.32;100.00;101031.30;4880940;57;1138753;-67
2023/10/09 09:51:42;;;;;;;11.43;4.90;;;;;;;9.41;100.00;101035.98;4980246;56;1139135;-66
2023/10/09 09:56:51;;;;;;;5.30;3.27;;;;;;;9.47;100.00;101037.73;4975927;58;1140988;-66
2023/10/09 10:02:06;;;;;;;3.97;2.43;;;;;;;9.53;100.00;101036.02;4911818;58;1138763;-72
2023/10/09 10:07:15;;;;;;;4.57;2.40;;;;;;;9.62;100.00;101032.42;4930732;57;1138734;-72
2023/10/09 10:12:41;;;;;;;4.23;2.73;;;;;;;9.73;100.00;101032.56;4836329;57;1138827;-71
2023/10/09 10:18:03;;;;;;;3.63;2.53;;;;;;;9.85;100.00;101003.53;4855052;57;1138987;-73
2023/10/09 10:23:25;;;;;;;3.23;2.10;;;;;;;9.92;100.00;101005.30;4973466;57;1138747;-72
2023/10/09 10:28:42;;;;;;;8.93;3.50;;;;;;;10.04;100.00;101015.52;5136177;55;1138734;-73
2023/10/09 10:34:06;;;;;;;3.40;2.70;;;;;;;10.14;100.00;100992.78;5155576;55;1140766;-73
2023/10/09 10:39:59;;;;;;;6.87;2.43;;;;;;;10.31;100.00;100993.83;5009252;56;1141143;-72
2023/10/09 10:44:44;;;;;;;2.50;1.90;;;;;;;10.47;100.00;101011.66;4962282;57;1222213;-73
2023/10/09 10:49:49;;;;;;;1.98;1.52;;;;;;;10.49;100.00;101008.91;5049465;55;1140804;-73
2023/10/09 10:55:17;;;;;;;1.60;1.47;;;;;;;10.43;100.00;101011.48;5122848;55;1140761;-71
2023/10/09 11:05:39;;;;;;;4.72;2.05;;;;;;;10.31;100.00;101023.39;5034692;55;1140759;-75
2023/10/09 11:10:35;;;;;;;2.42;1.45;;;;;;;10.27;100.00;100999.43;5079321;55;1141045;-72
2023/10/09 11:15:55;;;;;;;3.92;2.00;;;;;;;10.31;100.00;100997.80;5087133;55;1140922;-74
2023/10/09 11:26:25;;;;;;;4.80;1.87;;;;;;;10.42;100.00;100971.93;5018726;56;1240050;-73
2023/10/09 11:31:29;;;;;;;15.00;6.75;;;;;;;10.57;100.00;100964.24;5017609;56;1227852;-73
2023/10/09 11:36:36;;;;;;;3.02;1.72;;;;;;;10.57;100.00;100952.34;5003056;57;1143176;-74
2023/10/09 11:41:44;;;;;;;3.87;2.00;;;;;;;10.59;100.00;100953.08;5176546;55;1140975;-74
2023/10/09 11:52:35;;;;;;;11.77;4.43;;;;;;;10.56;100.00;100964.72;5058181;55;1238332;-73
2023/10/09 11:57:39;;;;;;;8.07;3.00;;;;;;;10.57;100.00;100962.45;5039757;55;1239289;-72
2023/10/09 12:02:45;;;;;;;2.40;1.50;;;;;;;10.53;100.00;100965.44;5094913;56;1257406;-74
2023/10/09 12:07:54;;;;;;;1.83;1.60;;;;;;;10.51;100.00;100958.08;5057379;55;1238166;-73
2023/10/09 12:13:04;;;;;;;1.97;1.60;;;;;;;10.47;100.00;100938.94;5031036;57;1242819;-73
2023/10/09 12:18:18;;;;;;;3.53;2.10;;;;;;;10.47;100.00;100937.61;5012674;56;1255501;-73
2023/10/09 12:23:27;;;;;;;5.63;2.10;;;;;;;10.47;100.00;100932.80;5046699;56;1141318;-74
2023/10/09 12:28:35;;;;;;;3.37;2.45;;;;;;;10.48;100.00;100925.23;4955326;56;1140979;-72
2023/10/09 12:33:41;;;;;;;3.10;2.10;;;;;;;10.49;100.00;100929.09;5032963;56;1141768;-67
2023/10/09 12:38:58;;;;;;;3.27;2.65;;;;;;;10.53;100.00;100931.05;5124275;56;1257221;-68
2023/10/09 12:44:02;;;;;;;6.23;4.43;;;;;;;10.55;100.00;100926.00;5091716;55;1141209;-68
2023/10/09 12:49:10;;;;;;;2.20;1.60;;;;;;;10.55;100.00;100932.61;4954409;56;1140857;-67
2023/10/09 12:54:26;;;;;;;2.60;2.20;;;;;;;10.56;100.00;100932.98;4931441;58;1140781;-68
2023/10/09 12:59:29;;;;;;;2.97;1.60;;;;;;;10.47;100.00;100909.84;4997530;57;1141014;-66
2023/10/09 13:04:40;;;;;;;4.00;2.63;;;;;;;10.44;100.00;100902.59;4927390;57;1178516;-74
2023/10/09 13:10:07;;;;;;;32.48;13.43;;;;;;;10.47;100.00;100907.67;4971329;57;1140798;-73
2023/10/09 13:14:53;;;;;;;14.53;5.47;;;;;;;10.52;100.00;100901.12;4940427;57;1144985;-72
2023/10/09 13:19:59;;;;;;;2.07;1.87;;;;;;;10.57;100.00;100902.09;4931424;57;1252759;-72
2023/10/09 13:25:06;;;;;;;65.90;28.97;;;;;;;10.59;100.00;100910.77;5009562;57;1175912;-72
2023/10/09 13:30:21;;;;;;;33.90;13.00;;;;;;;10.63;100.00;100891.56;4930806;57;1167432;-74
2023/10/09 13:35:32;;;;;;;5.77;3.87;;;;;;;10.61;100.00;100897.44;5069082;56;1145067;-73
2023/10/09 13:40:28;;;;;;;9.47;6.77;;;;;;;10.58;100.00;100905.95;5060355;56;1216313;-75
2023/10/09 13:45:37;;;;;;;25.55;13.80;;;;;;;10.56;100.00;100888.49;5075005;56;1141074;-73
2023/10/09 13:50:42;;;;;;;50.05;22.62;;;;;;;10.57;100.00;100880.45;4960782;58;1189297;-74
2023/10/09 13:55:48;;;;;;;24.27;13.85;;;;;;;10.58;100.00;100881.30;4954580;57;1237529;-73
2023/10/09 14:00:56;;;;;;;53.57;25.50;;;;;;;10.55;100.00;100890.77;5006956;56;1169220;-74
2023/10/09 14:06:10;;;;;;;6.63;4.43;;;;;;;10.53;100.00;100896.20;5040885;56;1145058;-74
2023/10/09 14:11:15;;;;;;;20.47;11.77;;;;;;;10.52;100.00;100889.69;5019011;56;1140905;-73
2023/10/09 14:16:32;;;;;;;17.60;10.20;;;;;;;10.53;100.00;100893.55;5019712;57;1145078;-76
2023/10/09 14:21:37;;;;;;;12.18;7.90;;;;;;;10.57;100.00;100901.61;5051004;56;1154081;-73
2023/10/09 14:26:40;;;;;;;15.40;9.53;;;;;;;10.60;100.00;100908.97;5017001;57;1143271;-74
2023/10/09 14:32:00;;;;;;;10.18;6.37;;;;;;;10.62;100.00;100921.13;4997506;56;1142946;-73
2023/10/09 14:36:53;;;;;;;14.17;8.80;;;;;;;10.57;100.00;100918.80;5000156;56;1142952;-74
2023/10/09 14:41:59;;;;;;;7.80;6.00;;;;;;;10.55;100.00;100907.96;4935750;58;1142725;-73
2023/10/09 14:47:06;;;;;;;5.47;4.53;;;;;;;10.56;100.00;100906.53;4948711;56;1141148;-72
2023/10/09 14:52:16;;;;;;;12.90;6.27;;;;;;;10.53;100.00;100930.58;5147636;55;1140833;-67
2023/10/09 14:57:20;;;;;;;5.80;3.40;;;;;;;10.52;100.00;100949.20;4939069;56;1142977;-68
2023/10/09 15:02:26;;;;;;;7.67;4.23;;;;;;;10.52;100.00;100939.94;4790196;59;1141322;-67
2023/10/09 15:07:33;;;;;;;9.38;4.83;;;;;;;10.53;100.00;100929.26;4856835;58;1140937;-69
2023/10/09 15:12:42;;;;;;;8.03;5.67;;;;;;;10.59;100.00;100929.28;4982661;56;1140833;-67
2023/10/09 15:17:47;;;;;;;25.25;14.10;;;;;;;10.56;100.00;100927.69;5015652;57;1140987;-66
2023/10/09 15:22:53;;;;;;;18.63;8.80;;;;;;;10.52;100.00;100932.01;4975128;57;1145228;-69
2023/10/09 15:27:58;;;;;;;51.03;19.97;;;;;;;10.47;100.00;100927.51;4942796;57;1142818;-67
2023/10/09 15:33:08;;;;;;;31.97;14.70;;;;;;;10.42;100.00;100931.79;5022877;57;1144896;-73
2023/10/09 15:38:15;;;;;;;11.87;7.77;;;;;;;10.42;100.00;100934.44;5023742;56;1145497;-72
2023/10/09 15:43:21;;;;;;;15.33;8.00;;;;;;;10.42;100.00;100926.98;4949595;56;1143069;-72
2023/10/09 15:48:26;;;;;;;17.63;11.37;;;;;;;10.42;100.00;100925.66;5003719;57;1143127;-72
2023/10/09 15:53:34;;;;;;;38.35;20.88;;;;;;;10.37;100.00;100933.94;5043470;56;1145008;-74
2023/10/09 15:58:46;;;;;;;19.37;12.70;;;;;;;10.34;100.00;100931.50;5061460;56;1145119;-76
2023/10/09 16:03:50;;;;;;;20.53;12.27;;;;;;;10.27;100.00;100935.50;5065500;56;1145281;-73
2023/10/09 16:08:55;;;;;;;20.47;13.17;;;;;;;10.20;100.00;100944.83;4983472;57;1145230;-73
2023/10/09 16:14:01;;;;;;;38.00;21.70;;;;;;;10.18;100.00;100956.83;4941306;58;1145127;-72
2023/10/09 16:19:11;;;;;;;34.07;18.03;;;;;;;10.14;100.00;100959.75;4999164;57;1144998;-74
2023/10/09 16:24:19;;;;;;;25.03;12.07;;;;;;;10.10;100.00;100956.94;4972486;57;1145036;-74
2023/10/09 16:29:24;;;;;;;14.03;9.63;;;;;;;10.04;100.00;100963.51;4932574;56;1145370;-72
2023/10/09 16:34:30;;;;;;;14.10;9.40;;;;;;;10.02;100.00;100979.09;4964961;56;1142972;-74
2023/10/09 16:39:38;;;;;;;8.97;6.17;;;;;;;10.01;100.00;100984.00;5038763;56;1152630;-72
2023/10/09 16:44:46;;;;;;;13.13;10.05;;;;;;;10.01;100.00;100980.88;5026090;56;1141282;-73
2023/10/09 16:49:51;;;;;;;41.87;28.23;;;;;;;10.06;100.00;100979.27;5012515;55;1145170;-73
2023/10/09 16:54:57;;;;;;;117.03;58.00;;;;;;;10.08;100.00;100975.54;4982638;57;1145042;-73
2023/10/09 17:00:04;;;;;;;104.90;46.77;;;;;;;10.11;100.00;100979.30;4996018;57;1147281;-74
2023/10/09 17:05:12;;;;;;;32.93;21.23;;;;;;;10.05;100.00;100979.73;5086239;57;1147037;-74
2023/10/09 17:10:19;;;;;;;63.60;36.57;;;;;;;9.95;100.00;100982.61;5112405;56;1145477;-73
2023/10/09 17:15:32;;;;;;;56.07;29.87;;;;;;;9.92;100.00;100992.09;5154852;55;1142883;-73
2023/10/09 17:20:32;;;;;;;49.27;27.17;;;;;;;9.94;100.00;101005.17;5101575;56;1143173;-73
2023/10/09 17:25:44;;;;;;;46.73;24.63;;;;;;;9.82;100.00;101011.66;5118083;56;1143439;-73
2023/10/09 17:30:51;;;;;;;132.93;63.58;;;;;;;9.69;100.00;101007.28;5138726;56;1143144;-73
2023/10/09 17:35:57;;;;;;;170.65;76.33;;;;;;;9.48;100.00;101012.17;5117948;56;1144984;-73
2023/10/09 17:41:05;;;;;;;66.53;33.67;;;;;;;9.40;100.00;101007.41;5118694;56;1145058;-74
2023/10/09 17:46:11;;;;;;;53.83;25.33;;;;;;;9.38;100.00;101007.98;5219496;55;1143035;-73
2023/10/09 17:51:18;;;;;;;55.00;26.07;;;;;;;9.40;100.00;101003.92;5205186;55;1142904;-73
2023/10/09 17:56:25;;;;;;;42.53;20.83;;;;;;;9.38;100.00;101000.05;5182313;55;1142967;-73
2023/10/09 18:01:32;;;;;;;53.60;26.50;;;;;;;9.36;100.00;101009.02;5195925;55;1143062;-74
2023/10/09 18:06:39;;;;;;;59.17;29.10;;;;;;;9.29;100.00;101009.91;5089357;56;1142901;-73
2023/10/09 18:11:55;;;;;;;82.75;31.57;;;;;;;9.23;100.00;101005.48;5119180;55;1143376;-74
2023/10/09 18:16:57;;;;;;;51.07;25.60;;;;;;;9.08;100.00;100999.39;5147396;55;1142701;-73
2023/10/09 18:22:04;;;;;;;52.55;24.90;;;;;;;9.02;100.00;101007.20;5225094;55;1143042;-67
2023/10/09 18:27:16;;;;;;;59.23;25.73;;;;;;;9.04;100.00;101012.39;5170023;55;1143178;-66
2023/10/09 18:32:17;;;;;;;86.53;42.27;;;;;;;8.97;100.00;101009.78;5103656;56;1143203;-68
2023/10/09 18:37:25;;;;;;;77.50;38.13;;;;;;;8.91;100.00;101011.48;5089041;56;1142685;-68
2023/10/09 18:42:31;;;;;;;199.97;94.93;;;;;;;8.79;100.00;101011.78;5153122;55;1142680;-66
2023/10/09 18:47:41;;;;;;;138.40;58.67;;;;;;;8.55;100.00;101008.03;5186957;55;1145061;-68
2023/10/09 18:52:46;;;;;;;88.63;41.63;;;;;;;8.40;100.00;101015.91;5091922;55;1145261;-68
2023/10/09 18:57:52;;;;;;;87.47;37.27;;;;;;;8.28;100.00;101017.94;5145372;56;1143219;-67
2023/10/09 19:02:59;;;;;;;86.13;39.03;;;;;;;8.28;100.00;101027.63;5098958;55;1143280;-67
2023/10/09 19:08:07;;;;;;;76.73;36.67;;;;;;;8.32;100.00;101035.77;5091665;55;1142970;-68
2023/10/09 19:13:13;;;;;;;67.33;33.63;;;;;;;8.31;100.00;101024.81;5143503;55;1143092;-66
2023/10/09 19:18:19;;;;;;;64.57;28.00;;;;;;;8.18;100.00;101026.02;5043304;56;1142876;-67
2023/10/09 19:23:25;;;;;;;110.43;47.10;;;;;;;8.05;100.00;101021.95;5034530;56;1143158;-73
2023/10/09 19:28:31;;;;;;;155.50;62.80;;;;;;;7.89;100.00;101022.94;5096930;56;1145181;-74
2023/10/09 19:33:41;;;;;;;120.63;51.33;;;;;;;7.90;100.00;101025.48;5076067;56;1145011;-75
2023/10/09 19:38:51;;;;;;;92.73;40.87;;;;;;;7.88;100.00;101032.63;5083115;56;1145142;-74
2023/10/09 19:43:56;;;;;;;96.90;42.67;;;;;;;7.69;100.00;101023.63;5004383;57;1143398;-74
2023/10/09 19:49:02;;;;;;;225.57;81.83;;;;;;;7.71;100.00;101009.91;5083054;56;1140992;-73
2023/10/09 19:54:08;;;;;;;255.20;94.20;;;;;;;7.70;100.00;101004.72;5077688;56;1145140;-73
2023/10/09 19:59:14;;;;;;;161.63;61.60;;;;;;;7.69;100.00;101024.09;5108556;56;1145043;-73
2023/10/09 20:04:19;;;;;;;130.85;54.00;;;;;;;7.69;100.00;101028.89;5082037;56;1144972;-73
2023/10/09 20:09:25;;;;;;;110.80;47.67;;;;;;;7.66;100.00;101038.27;5056447;56;1145281;-73
2023/10/09 20:14:31;;;;;;;111.77;46.43;;;;;;;7.70;100.00;101033.69;5029865;56;1145091;-73
2023/10/09 20:19:40;;;;;;;147.68;60.80;;;;;;;7.73;100.00;101044.90;4967773;57;1143051;-75
2023/10/09 20:24:46;;;;;;;143.30;52.17;;;;;;;7.64;100.00;101048.03;4907535;58;1145035;-73
2023/10/09 20:29:53;;;;;;;167.03;64.32;;;;;;;7.68;100.00;101044.77;4859648;59;1145222;-74
2023/10/09 20:34:59;;;;;;;237.37;99.67;;;;;;;7.67;100.00;101044.38;4853196;58;1145161;-72
2023/10/09 20:40:05;;;;;;;226.53;97.03;;;;;;;7.70;100.00;101040.27;4910584;57;1146983;-73
2023/10/09 20:45:11;;;;;;;174.30;65.07;;;;;;;7.73;100.00;101045.36;4843927;57;1145246;-73
2023/10/09 20:50:17;;;;;;;168.13;57.07;;;;;;;7.64;100.00;101051.98;4867231;57;1143283;-73
2023/10/09 20:55:24;;;;;;;164.87;50.40;;;;;;;7.51;100.00;101052.30;4872718;57;1145129;-73
2023/10/09 21:00:31;;;;;;;149.97;48.40;;;;;;;7.41;100.00;101069.55;4870021;59;1145131;-72
2023/10/09 21:05:39;;;;;;;143.30;47.10;;;;;;;7.38;100.00;101074.52;4939726;57;1145123;-72
2023/10/09 21:10:44;;;;;;;181.43;55.13;;;;;;;7.24;100.00;101069.17;4900956;57;1145026;-73
2023/10/09 21:15:50;;;;;;;201.00;65.47;;;;;;;6.94;100.00;101080.89;4946664;56;1143330;-72
2023/10/09 21:20:55;;;;;;;211.60;64.77;;;;;;;6.94;100.00;101080.89;5055432;57;1143231;-72
2023/10/09 21:26:01;;;;;;;199.07;56.20;;;;;;;6.91;100.00;101073.16;5074387;57;1142918;-73
2023/10/09 21:31:07;;;;;;;190.90;54.63;;;;;;;6.94;100.00;101063.80;4978506;57;1145210;-72
2023/10/09 21:36:13;;;;;;;213.57;62.20;;;;;;;6.98;100.00;101071.06;4972006;58;1145186;-72
2023/10/09 21:41:21;;;;;;;188.47;58.10;;;;;;;6.96;100.00;101073.77;4991424;58;1145280;-72
2023/10/09 21:46:27;;;;;;;162.67;50.90;;;;;;;6.98;100.00;101073.22;4971697;57;1145259;-73
2023/10/09 21:51:32;;;;;;;127.05;42.67;;;;;;;6.91;100.00;101077.56;4972022;58;1143152;-73
2023/10/09 21:56:38;;;;;;;105.27;36.73;;;;;;;6.76;100.00;101087.11;4972441;58;1178419;-72
2023/10/09 22:01:43;;;;;;;82.75;31.42;;;;;;;6.63;100.00;101077.72;5018519;57;1143140;-72
2023/10/09 22:06:49;;;;;;;45.52;20.08;;;;;;;6.53;100.00;101075.66;5062546;56;1143003;-73
2023/10/09 22:11:55;;;;;;;52.97;20.27;;;;;;;6.49;100.00;101078.90;5133443;56;1143189;-72
2023/10/09 22:17:00;;;;;;;45.93;17.67;;;;;;;6.50;100.00;101078.44;5156716;56;1142837;-72
2023/10/09 22:22:10;;;;;;;58.90;21.80;;;;;;;6.43;100.00;101075.27;5142238;55;1141247;-73
2023/10/09 22:27:23;;;;;;;36.57;15.67;;;;;;;6.37;100.00;101070.80;5067259;56;1141105;-73
2023/10/09 22:32:27;;;;;;;34.33;10.77;;;;;;;6.32;100.00;101081.08;5076039;56;1140826;-72
2023/10/09 22:37:32;;;;;;;26.37;13.80;;;;;;;6.17;100.00;101072.66;5057639;57;1142939;-73
2023/10/09 22:42:37;;;;;;;37.20;17.77;;;;;;;6.21;100.00;101077.30;5057697;57;1142914;-73
2023/10/09 22:47:43;;;;;;;54.77;21.17;;;;;;;6.24;100.00;101077.16;5076720;56;1142974;-73
2023/10/09 22:52:52;;;;;;;63.70;26.65;;;;;;;6.25;100.00;101077.54;5057562;56;1140999;-73
2023/10/09 22:57:56;;;;;;;48.80;24.72;;;;;;;6.09;100.00;101080.09;5057350;56;1140659;-72
2023/10/09 23:03:09;;;;;;;46.10;19.73;;;;;;;5.96;100.00;101085.08;5089717;56;1140865;-72
2023/10/09 23:08:16;;;;;;;36.53;14.60;;;;;;;5.86;100.00;101093.45;5139610;56;1142960;-73
2023/10/09 23:13:17;;;;;;;44.63;17.97;;;;;;;5.86;100.00;101086.89;5141374;56;1142838;-73
2023/10/09 23:18:43;;;;;;;42.73;20.47;;;;;;;5.85;100.00;101092.60;5162204;55;1142981;-73
2023/10/09 23:23:44;;;;;;;47.75;20.08;;;;;;;5.88;100.00;101102.11;5061817;56;1141118;-74
2023/10/09 23:28:53;;;;;;;44.73;19.07;;;;;;;5.89;100.00;101110.41;5057303;57;1141081;-73
2023/10/09 23:34:07;;;;;;;41.73;18.62;;;;;;;5.85;100.00;101107.50;5076710;57;1140933;-73
2023/10/09 23:39:52;;;;;;;21.50;9.93;;;;;;;5.78;100.00;101111.36;5055456;57;1141193;-72
2023/10/09 23:44:24;;;;;;;33.10;13.50;;;;;;;5.72;100.00;101112.95;5067533;56;1138704;-73
2023/10/09 23:49:30;;;;;;;37.17;16.57;;;;;;;5.72;100.00;101109.88;5130570;56;1142806;-72
2023/10/09 23:54:42;;;;;;;27.60;12.17;;;;;;;5.72;100.00;101123.45;5110606;56;1142664;-72
2023/10/09 23:59:50;;;;;;;20.68;9.95;;;;;;;5.56;100.00;101126.81;5110142;56;1140972;-73
